KMWT

Mount Ida Airport

Mount Ida, Arkansas, USA
METAR KMWT 172053Z AUTO 00000KT 10SM OVC005 10/09 A3003 RMK AO2 SLP174 T01000089 53001
Observed Flight Rules
Dec-17 @ 20:53 UTC (25 minutes ago) Instrument Flight Rules
Wind Visibility Clouds
Calm 10 miles
  • Overcast at 500' AGL
Temperatures Readings
Current 10°C / 50°F
Dewpoint 9°C / 48°F
Humidity 94%
Altimeter 30.03" Hg
Pressure 1017.4 hPa
Elevation 214
METAR KMWT 172053Z AUTO 00000KT 10SM OVC005 10/09 A3003 RMK AO2 SLP174 T01000089 53001
Observed Flight Rules
Dec-17 @ 20:53 UTC
(25 minutes ago)
IFR
Wind Visibility
Calm 10 miles
Clouds
  • Overcast at 500' AGL
Temperature Dewpoint
10°C / 50°F 9°C / 48°F
Humidity Altimeter Pressure
94% 30.03" Hg 1017.4 hPa